Elmore, Vermont
Current Conditions -  °F | °C
As of 1:30 PM on Thursday 27 Nov 2014 (Local Time) from KMVL Reporting Station
Overcast Overcast  
Wind Chill: 21°   Ceiling: 3500
Heat Index: 28°   Visibility: 10mi
Dew Point: 21°   Wind: 7mph
Humidity: 75%   Direction: 350°N
Pressure: 29.99"   Gusts: NA
Location:  44.5407°N, 72.5287°W
Report Text: KMVL 271830Z AUTO 35006KT 10SM FEW016 SCT026 OVC035 M02/M06 A2999 RMK AO2 T10221061 TSNO
Loading
Personal Weather Stations






























Interactive Weather Map New forecast layout! Learn more

10-Day Weather Forecast

Advertisements
Track Severe Weather on mobile